createdAt,value
2018-12-07T00:02:13.146Z,12.69
2018-12-07T00:04:44.399Z,12.59
2018-12-07T00:07:16.716Z,12.61
2018-12-07T00:09:47.438Z,12.53
2018-12-07T00:12:18.128Z,12.56
2018-12-07T00:14:49.316Z,12.64
2018-12-07T00:17:20.038Z,12.66
2018-12-07T00:19:50.749Z,12.69
2018-12-07T00:22:21.441Z,12.64
2018-12-07T00:24:52.068Z,12.61
2018-12-07T00:27:22.739Z,12.72
2018-12-07T00:29:53.830Z,12.65
2018-12-07T00:32:25.174Z,12.64
2018-12-07T00:34:55.842Z,12.61
2018-12-07T00:37:26.583Z,12.68
2018-12-07T00:39:57.711Z,12.68
2018-12-07T00:42:28.618Z,12.63
2018-12-07T00:44:59.370Z,12.73
2018-12-07T00:47:29.973Z,12.71
2018-12-07T00:50:00.794Z,12.76
2018-12-07T00:52:33.613Z,12.66
2018-12-07T00:55:08.123Z,12.66
2018-12-07T00:57:40.109Z,12.55
2018-12-07T01:00:11.164Z,12.60
2018-12-07T01:02:42.409Z,12.55
2018-12-07T01:05:14.561Z,12.71
2018-12-07T01:07:45.212Z,12.64
2018-12-07T01:10:16.102Z,12.69
2018-12-07T01:12:46.766Z,12.69
2018-12-07T01:15:17.567Z,12.68
2018-12-07T01:17:48.270Z,12.68
2018-12-07T01:20:18.923Z,12.73
2018-12-07T01:22:49.641Z,12.66
2018-12-07T01:25:20.259Z,12.67
2018-12-07T01:27:50.910Z,12.68
2018-12-07T01:30:21.523Z,12.64
2018-12-07T01:32:52.181Z,12.62
2018-12-07T01:35:22.814Z,12.58
2018-12-07T01:37:54.538Z,12.54
2018-12-07T01:40:25.148Z,12.55
2018-12-07T01:42:55.779Z,12.49
2018-12-07T01:45:26.432Z,12.44
2018-12-07T01:47:57.057Z,12.40
2018-12-07T01:50:28.017Z,12.41
2018-12-07T01:52:58.715Z,12.50
2018-12-07T01:55:29.376Z,12.50
2018-12-07T01:58:00.038Z,12.50
2018-12-07T02:00:31.895Z,12.46
2018-12-07T02:03:04.638Z,12.51
2018-12-07T02:05:35.669Z,12.55
2018-12-07T02:08:06.310Z,12.49
2018-12-07T02:10:37.052Z,12.47
2018-12-07T02:13:07.719Z,12.48
2018-12-07T02:15:38.382Z,12.44
2018-12-07T02:18:10.215Z,12.44
2018-12-07T02:20:41.169Z,12.46
2018-12-07T02:23:11.938Z,12.49
2018-12-07T02:25:42.792Z,12.29
2018-12-07T02:28:14.385Z,12.35
2018-12-07T02:30:45.547Z,12.28
2018-12-07T02:33:16.212Z,12.22
2018-12-07T02:35:46.911Z,12.28
2018-12-07T02:38:17.606Z,12.19
2018-12-07T02:40:48.260Z,12.22
2018-12-07T02:43:19.464Z,12.24
2018-12-07T02:45:50.129Z,12.21
2018-12-07T02:48:20.806Z,12.23
2018-12-07T02:50:51.479Z,12.25
2018-12-07T02:53:22.098Z,12.19
2018-12-07T02:55:52.777Z,12.23
2018-12-07T02:58:23.372Z,12.21
2018-12-07T03:00:54.103Z,12.10
2018-12-07T03:03:25.530Z,12.13
2018-12-07T03:05:56.241Z,12.07
2018-12-07T03:08:26.887Z,12.08
2018-12-07T03:10:57.734Z,12.10
2018-12-07T03:13:28.851Z,12.10
2018-12-07T03:15:59.596Z,12.18
2018-12-07T03:18:32.623Z,12.14
2018-12-07T03:21:05.379Z,12.03
2018-12-07T03:23:36.092Z,12.16
2018-12-07T03:26:14.108Z,12.24
2018-12-07T03:28:45.822Z,12.18
2018-12-07T03:31:17.414Z,12.23
2018-12-07T03:33:49.162Z,12.22
2018-12-07T03:36:20.473Z,12.27
2018-12-07T03:38:51.402Z,12.23
2018-12-07T03:41:28.412Z,12.25
2018-12-07T03:43:59.285Z,12.25
2018-12-07T03:46:30.041Z,12.27
2018-12-07T03:49:00.738Z,12.28
2018-12-07T03:51:31.436Z,12.21
2018-12-07T03:54:05.176Z,12.18
2018-12-07T03:56:35.854Z,12.05
2018-12-07T03:59:06.530Z,12.07
2018-12-07T04:01:37.530Z,12.13
2018-12-07T04:04:09.267Z,12.10
2018-12-07T04:06:41.991Z,12.14
2018-12-07T04:09:13.482Z,12.11
2018-12-07T04:11:44.215Z,11.93
2018-12-07T04:14:15.245Z,11.98
2018-12-07T04:16:45.906Z,11.99
2018-12-07T04:19:16.651Z,12.07
2018-12-07T04:21:48.058Z,12.02
2018-12-07T04:24:18.821Z,12.06
2018-12-07T04:26:49.634Z,12.05
2018-12-07T04:29:20.278Z,12.02
2018-12-07T04:31:51.592Z,11.96
2018-12-07T04:34:22.762Z,11.98
2018-12-07T04:36:53.456Z,11.89
2018-12-07T04:39:24.494Z,11.96
2018-12-07T04:41:55.596Z,11.93
2018-12-07T04:44:26.242Z,11.93
2018-12-07T04:46:59.497Z,11.82
2018-12-07T04:49:30.151Z,11.82
2018-12-07T04:52:00.774Z,11.83
2018-12-07T04:54:33.353Z,11.82
2018-12-07T04:57:05.045Z,11.79
2018-12-07T04:59:35.990Z,11.83
2018-12-07T05:02:06.813Z,11.82
2018-12-07T05:04:38.343Z,11.86
2018-12-07T05:07:09.044Z,11.79
2018-12-07T05:09:39.737Z,11.83
2018-12-07T05:12:10.348Z,11.84
2018-12-07T05:14:42.290Z,11.79
2018-12-07T05:17:13.449Z,11.74
2018-12-07T05:19:44.131Z,11.80
2018-12-07T05:22:14.729Z,11.88
2018-12-07T05:24:45.383Z,11.87
2018-12-07T05:27:16.022Z,11.82
2018-12-07T05:29:46.698Z,11.76
2018-12-07T05:32:17.508Z,11.77
2018-12-07T05:34:48.229Z,11.73
2018-12-07T05:37:18.914Z,11.79
2018-12-07T05:39:51.487Z,11.81
2018-12-07T05:42:22.180Z,11.90
2018-12-07T05:44:52.806Z,11.76
2018-12-07T05:47:23.554Z,11.58
2018-12-07T05:49:54.238Z,11.49
2018-12-07T05:52:24.999Z,11.47
2018-12-07T05:54:55.658Z,11.42
2018-12-07T05:57:26.302Z,11.43
2018-12-07T05:59:56.960Z,11.11
2018-12-07T06:02:28.550Z,11.45
2018-12-07T06:04:59.303Z,11.52
2018-12-07T06:07:29.992Z,11.53
2018-12-07T06:10:00.666Z,11.57
2018-12-07T06:12:32.818Z,11.62
2018-12-07T06:15:06.086Z,11.58
2018-12-07T06:17:37.902Z,11.59
2018-12-07T06:20:08.802Z,11.63
2018-12-07T06:22:39.639Z,11.37
2018-12-07T06:25:10.351Z,11.24
2018-12-07T06:27:41.375Z,11.25
2018-12-07T06:30:12.088Z,11.22
2018-12-07T06:32:42.919Z,11.28
2018-12-07T06:35:13.547Z,11.26
2018-12-07T06:37:44.243Z,11.23
2018-12-07T06:40:14.982Z,11.46
2018-12-07T06:42:45.655Z,11.45
2018-12-07T06:45:16.323Z,11.57
2018-12-07T06:47:46.957Z,11.57
2018-12-07T06:50:17.643Z,11.55
2018-12-07T06:52:48.298Z,11.55
2018-12-07T06:55:18.965Z,11.58
2018-12-07T06:57:49.630Z,11.61
2018-12-07T07:00:20.951Z,11.63
2018-12-07T07:02:51.582Z,11.65
2018-12-07T07:05:22.236Z,11.65
2018-12-07T07:07:53.289Z,11.76
2018-12-07T07:10:23.987Z,11.73
2018-12-07T07:12:54.652Z,11.76
2018-12-07T07:15:25.375Z,11.69
2018-12-07T07:17:56.058Z,11.83
2018-12-07T07:20:26.763Z,11.76
2018-12-07T07:22:58.399Z,11.77
2018-12-07T07:25:29.054Z,11.78
2018-12-07T07:27:59.835Z,11.76
2018-12-07T07:30:30.506Z,11.80
2018-12-07T07:33:03.306Z,11.73
2018-12-07T07:35:33.998Z,11.65
2018-12-07T07:38:05.118Z,11.46
2018-12-07T07:40:35.886Z,11.55
2018-12-07T07:43:08.049Z,11.63
2018-12-07T07:45:45.033Z,11.63
2018-12-07T07:48:15.715Z,11.78
2018-12-07T07:50:46.679Z,11.73
2018-12-07T07:53:17.337Z,11.83
2018-12-07T07:55:54.194Z,11.86
2018-12-07T07:58:25.720Z,11.79
2018-12-07T08:00:56.326Z,11.83
2018-12-07T08:03:29.984Z,11.88
2018-12-07T08:06:00.810Z,11.87
2018-12-07T08:08:31.472Z,11.76
2018-12-07T08:11:03.430Z,12.02
2018-12-07T08:13:34.095Z,11.90
2018-12-07T08:16:05.150Z,11.90
2018-12-07T08:18:35.798Z,11.89
2018-12-07T08:21:06.388Z,11.93
2018-12-07T08:23:38.528Z,11.90
2018-12-07T08:26:09.322Z,11.85
2018-12-07T08:28:39.989Z,11.95
2018-12-07T08:31:11.732Z,11.91
2018-12-07T08:33:42.475Z,11.95
2018-12-07T08:36:14.467Z,11.97
2018-12-07T08:38:45.391Z,12.04
2018-12-07T08:41:16.051Z,11.95
2018-12-07T08:43:46.806Z,12.03
2018-12-07T08:46:18.310Z,12.02
2018-12-07T08:48:49.022Z,12.18
2018-12-07T08:51:19.707Z,12.10
2018-12-07T08:53:50.354Z,12.10
2018-12-07T08:56:21.748Z,12.09
2018-12-07T08:58:52.475Z,12.07
2018-12-07T09:01:23.346Z,12.22
2018-12-07T09:03:54.313Z,12.34
2018-12-07T09:06:26.190Z,12.51
2018-12-07T09:08:57.410Z,12.37
2018-12-07T09:11:28.088Z,12.40
2018-12-07T09:14:04.685Z,12.44
2018-12-07T09:16:36.170Z,12.39
2018-12-07T09:19:06.782Z,12.34
2018-12-07T09:21:37.514Z,12.26
2018-12-07T09:24:08.135Z,12.46
2018-12-07T09:26:38.866Z,12.68
2018-12-07T09:29:09.464Z,12.75
2018-12-07T09:31:40.183Z,12.91
2018-12-07T09:34:10.866Z,12.90
2018-12-07T09:36:41.548Z,12.86
2018-12-07T09:39:12.219Z,12.78
2018-12-07T09:41:42.871Z,12.93
2018-12-07T09:44:13.670Z,12.95
2018-12-07T09:46:44.702Z,12.89
2018-12-07T09:49:15.362Z,12.94
2018-12-07T09:51:46.017Z,12.79
2018-12-07T09:54:17.830Z,12.81
2018-12-07T09:56:49.083Z,12.89
2018-12-07T09:59:19.757Z,12.62
2018-12-07T10:01:50.366Z,12.58
2018-12-07T10:04:21.057Z,12.75
2018-12-07T10:06:51.792Z,12.62
2018-12-07T10:09:25.084Z,12.63
2018-12-07T10:12:07.813Z,12.43
2018-12-07T10:14:39.595Z,12.59
2018-12-07T10:17:10.247Z,12.59
2018-12-07T10:19:47.463Z,12.57
2018-12-07T10:22:18.413Z,12.72
2018-12-07T10:24:49.275Z,12.77
2018-12-07T10:27:20.431Z,12.89
2018-12-07T10:29:52.466Z,12.94
2018-12-07T10:32:23.199Z,13.00
2018-12-07T10:34:54.247Z,13.13
2018-12-07T10:37:24.901Z,13.30
2018-12-07T10:39:55.573Z,13.32
2018-12-07T10:42:26.247Z,13.58
2018-12-07T10:44:57.059Z,13.72
2018-12-07T10:47:27.896Z,13.61
2018-12-07T10:49:59.295Z,13.70
2018-12-07T10:52:31.019Z,13.68
2018-12-07T10:55:03.374Z,13.62
2018-12-07T10:57:34.025Z,13.61
2018-12-07T11:00:09.209Z,13.73
2018-12-07T11:02:46.083Z,13.65
2018-12-07T11:05:22.429Z,13.78
2018-12-07T11:07:58.230Z,13.80
2018-12-07T11:10:34.076Z,14.00
2018-12-07T11:13:11.097Z,14.00
2018-12-07T11:15:46.752Z,13.88
2018-12-07T11:18:22.478Z,13.97
2018-12-07T11:20:58.098Z,14.02
2018-12-07T11:23:35.764Z,14.23
2018-12-07T11:26:13.279Z,14.28
2018-12-07T11:28:50.298Z,14.10
2018-12-07T11:31:25.978Z,14.29
2018-12-07T11:34:05.541Z,14.17
2018-12-07T11:36:36.200Z,14.32
2018-12-07T11:39:09.547Z,14.34
2018-12-07T11:41:40.194Z,14.52
2018-12-07T11:44:12.947Z,14.48
2018-12-07T11:46:44.371Z,14.72
2018-12-07T11:49:15.085Z,14.87
2018-12-07T11:51:45.883Z,15.00
2018-12-07T11:54:16.570Z,15.41
2018-12-07T11:56:47.185Z,15.31
2018-12-07T11:59:17.886Z,15.32
2018-12-07T12:01:48.566Z,15.89
2018-12-07T12:04:19.249Z,15.95
2018-12-07T12:06:50.903Z,15.59
2018-12-07T12:09:21.582Z,15.78
2018-12-07T12:11:54.430Z,15.71
2018-12-07T12:14:26.675Z,15.31
2018-12-07T12:16:57.359Z,15.24
2018-12-07T12:19:28.006Z,15.23
2018-12-07T12:21:58.709Z,15.28
2018-12-07T12:24:29.962Z,15.31
2018-12-07T12:27:06.721Z,15.32
2018-12-07T12:29:37.453Z,15.25
2018-12-07T12:32:09.768Z,15.23
2018-12-07T12:34:40.596Z,15.12
2018-12-07T12:37:11.571Z,15.21
2018-12-07T12:39:42.360Z,14.88
2018-12-07T12:42:13.009Z,15.03
2018-12-07T12:44:45.030Z,14.91
2018-12-07T12:47:15.682Z,14.76
2018-12-07T12:49:46.342Z,14.56
2018-12-07T12:52:16.945Z,14.56
2018-12-07T12:54:47.587Z,14.43
2018-12-07T12:57:24.562Z,14.47
2018-12-07T12:59:55.246Z,14.90
2018-12-07T13:02:25.864Z,14.56
2018-12-07T13:04:56.496Z,14.39
2018-12-07T13:07:27.128Z,14.47
2018-12-07T13:09:57.884Z,14.46
2018-12-07T13:12:28.545Z,14.40
2018-12-07T13:14:59.182Z,14.49
2018-12-07T13:17:29.858Z,14.43
2018-12-07T13:20:00.501Z,14.45
2018-12-07T13:22:34.660Z,14.57
2018-12-07T13:25:09.100Z,14.54
2018-12-07T13:27:39.750Z,14.77
2018-12-07T13:30:10.450Z,15.08
2018-12-07T13:32:41.127Z,14.89
2018-12-07T13:35:11.868Z,14.76
2018-12-07T13:37:42.571Z,14.88
2018-12-07T13:40:13.426Z,15.16
2018-12-07T13:42:44.224Z,15.40
2018-12-07T13:45:14.958Z,15.94
2018-12-07T13:47:46.865Z,15.88
2018-12-07T13:50:22.721Z,15.89
2018-12-07T13:52:53.477Z,16.20
2018-12-07T13:55:24.302Z,16.10
2018-12-07T13:57:57.194Z,16.27
2018-12-07T14:00:28.263Z,16.49
2018-12-07T14:02:59.172Z,16.73
2018-12-07T14:05:32.367Z,16.59
2018-12-07T14:08:08.068Z,16.35
2018-12-07T14:10:38.850Z,16.11
2018-12-07T14:13:09.706Z,16.23
2018-12-07T14:15:40.579Z,15.98
2018-12-07T14:18:11.390Z,15.71
2018-12-07T14:20:42.156Z,15.46
2018-12-07T14:23:13.031Z,15.41
2018-12-07T14:25:43.817Z,15.46
2018-12-07T14:28:14.602Z,15.36
2018-12-07T14:30:45.701Z,15.25
2018-12-07T14:33:16.415Z,15.21
2018-12-07T14:35:48.352Z,15.14
2018-12-07T14:38:19.175Z,15.17
2018-12-07T14:40:50.320Z,15.28
2018-12-07T14:43:21.208Z,15.16
2018-12-07T14:45:51.955Z,15.24
2018-12-07T14:48:29.209Z,15.37
2018-12-07T14:50:59.916Z,15.24
2018-12-07T14:53:32.656Z,15.46
2018-12-07T14:56:05.524Z,15.54
2018-12-07T14:58:36.739Z,15.40
2018-12-07T15:01:07.621Z,15.27
2018-12-07T15:03:38.548Z,15.21
2018-12-07T15:06:09.308Z,15.29
2018-12-07T15:08:40.033Z,15.18
2018-12-07T15:11:11.080Z,15.29
2018-12-07T15:13:41.989Z,15.30
2018-12-07T15:16:12.764Z,15.40
2018-12-07T15:18:44.085Z,15.31
2018-12-07T15:21:14.843Z,15.21
2018-12-07T15:23:45.522Z,15.22
2018-12-07T15:26:16.285Z,15.13
2018-12-07T15:28:47.149Z,15.11
2018-12-07T15:31:18.869Z,15.16
2018-12-07T15:33:50.036Z,14.96
2018-12-07T15:36:22.569Z,14.85
2018-12-07T15:38:53.354Z,14.96
2018-12-07T15:41:24.162Z,14.82
2018-12-07T15:43:55.069Z,14.79
2018-12-07T15:46:26.169Z,14.78
2018-12-07T15:48:57.156Z,14.73
2018-12-07T15:51:28.709Z,14.68
2018-12-07T15:53:59.425Z,14.60
2018-12-07T15:56:31.226Z,14.60
2018-12-07T15:59:02.826Z,14.67
2018-12-07T16:01:33.745Z,14.60
2018-12-07T16:04:08.138Z,14.49
2018-12-07T16:06:38.881Z,14.41
2018-12-07T16:09:09.929Z,14.41
2018-12-07T16:11:40.777Z,14.33
2018-12-07T16:14:13.006Z,14.26
2018-12-07T16:16:43.966Z,14.23
2018-12-07T16:19:14.929Z,14.17
2018-12-07T16:21:45.721Z,14.17
2018-12-07T16:24:16.638Z,14.13
2018-12-07T16:26:47.859Z,14.10
2018-12-07T16:29:18.736Z,14.01
2018-12-07T16:31:49.502Z,13.90
2018-12-07T16:34:20.741Z,13.95
2018-12-07T16:36:51.421Z,13.92
2018-12-07T16:39:22.611Z,13.89
2018-12-07T16:41:53.586Z,13.96
2018-12-07T16:44:24.531Z,13.88
2018-12-07T16:46:55.775Z,13.91
2018-12-07T16:49:26.564Z,13.91
2018-12-07T16:51:57.458Z,13.95
2018-12-07T16:54:28.585Z,13.89
2018-12-07T16:56:59.637Z,13.76
2018-12-07T16:59:31.881Z,13.78
2018-12-07T17:02:06.652Z,13.81
2018-12-07T17:04:37.433Z,13.77
2018-12-07T17:07:08.246Z,13.62
2018-12-07T17:09:38.906Z,13.64
2018-12-07T17:12:09.598Z,13.70
2018-12-07T17:14:40.437Z,13.72
2018-12-07T17:17:11.342Z,13.70
2018-12-07T17:19:42.143Z,13.66
2018-12-07T17:22:12.929Z,13.65
2018-12-07T17:24:43.670Z,13.59
2018-12-07T17:27:15.143Z,13.59
2018-12-07T17:29:46.002Z,13.66
2018-12-07T17:32:17.045Z,13.58
2018-12-07T17:34:47.847Z,13.65
2018-12-07T17:37:19.384Z,13.61
2018-12-07T17:39:50.636Z,13.63
2018-12-07T17:42:29.261Z,13.59
2018-12-07T17:44:54.372Z,13.61
2018-12-07T17:47:25.541Z,13.62
2018-12-07T17:49:59.937Z,13.61
2018-12-07T17:52:35.054Z,13.66
2018-12-07T17:55:06.418Z,13.67
2018-12-07T17:57:37.325Z,13.63
2018-12-07T18:00:12.199Z,13.69
2018-12-07T18:02:43.314Z,13.65
2018-12-07T18:05:17.461Z,13.68
2018-12-07T18:07:57.206Z,13.68
2018-12-07T18:10:31.151Z,13.66
2018-12-07T18:15:42.470Z,13.69
2018-12-07T18:18:14.899Z,13.72
2018-12-07T18:20:48.921Z,13.74
2018-12-07T18:23:20.718Z,13.74
2018-12-07T18:25:51.570Z,13.80
2018-12-07T18:28:22.764Z,13.69
2018-12-07T18:31:03.045Z,13.66
2018-12-07T18:33:40.169Z,13.67
2018-12-07T18:36:12.550Z,13.69
2018-12-07T18:38:44.506Z,13.58
2018-12-07T18:41:16.461Z,13.68
2018-12-07T18:43:47.536Z,13.66
2018-12-07T18:46:18.450Z,13.59
2018-12-07T18:48:49.299Z,13.63
2018-12-07T18:51:20.364Z,13.63
2018-12-07T18:53:51.694Z,13.63
2018-12-07T18:56:22.770Z,13.63
2018-12-07T18:58:53.581Z,13.65
2018-12-07T19:01:24.624Z,13.68
2018-12-07T19:03:55.576Z,13.60
2018-12-07T19:06:26.687Z,13.73
2018-12-07T19:08:57.490Z,13.71
2018-12-07T19:11:28.406Z,13.72
2018-12-07T19:13:59.244Z,13.71
2018-12-07T19:16:30.176Z,13.71
2018-12-07T19:19:05.321Z,13.64
2018-12-07T19:21:36.031Z,13.69
2018-12-07T19:24:07.931Z,13.68
2018-12-07T19:26:38.870Z,13.72
2018-12-07T19:29:09.698Z,13.76
2018-12-07T19:31:40.549Z,13.69
2018-12-07T19:34:11.373Z,13.69
2018-12-07T19:36:42.339Z,13.72
2018-12-07T19:39:13.255Z,13.65
2018-12-07T19:41:44.054Z,13.73
2018-12-07T19:44:14.803Z,13.73
2018-12-07T19:46:45.697Z,13.70
2018-12-07T19:49:16.781Z,13.71
2018-12-07T19:51:49.532Z,13.60
2018-12-07T19:54:20.211Z,13.59
2018-12-07T19:56:51.358Z,13.64
2018-12-07T19:59:22.519Z,13.55
2018-12-07T20:01:59.794Z,13.49
2018-12-07T20:04:30.736Z,13.40
2018-12-07T20:07:04.451Z,13.36
2018-12-07T20:09:36.121Z,13.25
2018-12-07T20:12:08.188Z,13.24
2018-12-07T20:14:39.144Z,13.26
2018-12-07T20:17:10.153Z,13.25
2018-12-07T20:19:41.095Z,13.20
2018-12-07T20:22:12.243Z,13.13
2018-12-07T20:24:44.924Z,13.13
2018-12-07T20:27:16.468Z,13.14
2018-12-07T20:29:47.615Z,13.06
2018-12-07T20:32:18.872Z,13.03
2018-12-07T20:34:49.935Z,12.99
2018-12-07T20:37:20.842Z,12.92
2018-12-07T20:39:52.292Z,12.91
2018-12-07T20:42:23.304Z,12.84
2018-12-07T20:44:54.410Z,12.79
2018-12-07T20:47:25.963Z,12.74
2018-12-07T20:49:58.107Z,12.70
2018-12-07T20:52:29.402Z,12.68
2018-12-07T20:55:00.441Z,12.70
2018-12-07T20:57:31.280Z,12.72
2018-12-07T21:00:02.439Z,12.62
2018-12-07T21:02:34.795Z,12.63
2018-12-07T21:05:52.203Z,12.69
2018-12-07T21:09:34.748Z,12.56
2018-12-07T21:12:18.499Z,12.54
2018-12-07T21:14:52.713Z,12.50
2018-12-07T21:17:33.713Z,12.46
2018-12-07T21:20:25.718Z,12.37
2018-12-07T21:22:56.848Z,12.34
2018-12-07T21:25:28.591Z,12.38
2018-12-07T21:27:59.726Z,12.33
2018-12-07T21:30:57.031Z,12.28
2018-12-07T21:33:48.446Z,12.16
2018-12-07T21:36:34.853Z,12.08
2018-12-07T21:40:15.693Z,12.01
2018-12-07T21:42:47.305Z,11.89
2018-12-07T21:45:19.349Z,11.78
2018-12-07T21:48:27.312Z,11.76
2018-12-07T21:51:41.118Z,11.74
2018-12-07T21:54:12.362Z,11.66
2018-12-07T21:56:43.833Z,11.64
2018-12-07T21:59:15.100Z,11.48
2018-12-07T22:01:46.660Z,11.45
2018-12-07T22:04:18.504Z,11.36
2018-12-07T22:06:49.762Z,11.37
2018-12-07T22:09:20.742Z,11.43
2018-12-07T22:11:52.759Z,11.36
2018-12-07T22:14:24.746Z,11.38
2018-12-07T22:16:56.848Z,11.26
2018-12-07T22:19:27.727Z,11.31
2018-12-07T22:21:58.873Z,11.24
2018-12-07T22:24:30.040Z,11.24
2018-12-07T22:27:01.050Z,11.10
2018-12-07T22:29:33.212Z,11.13
2018-12-07T22:32:05.983Z,11.05
2018-12-07T22:34:37.155Z,11.06
2018-12-07T22:37:08.364Z,11.00
2018-12-07T22:39:39.649Z,10.96
2018-12-07T22:42:10.692Z,10.95
2018-12-07T22:44:41.963Z,11.02
2018-12-07T22:47:13.082Z,11.09
2018-12-07T22:49:43.890Z,11.01
2018-12-07T22:52:14.785Z,11.03
2018-12-07T22:54:45.653Z,11.03
2018-12-07T22:57:16.742Z,11.02
2018-12-07T22:59:47.561Z,11.00
2018-12-07T23:02:19.115Z,10.97
2018-12-07T23:04:50.325Z,10.96
2018-12-07T23:07:22.163Z,10.98
2018-12-07T23:09:52.914Z,10.92
2018-12-07T23:12:24.392Z,10.79
2018-12-07T23:14:55.259Z,10.74
2018-12-07T23:17:25.939Z,10.73
2018-12-07T23:19:58.788Z,10.73
2018-12-07T23:22:29.472Z,10.77
2018-12-07T23:25:00.191Z,10.73
2018-12-07T23:27:32.879Z,10.62
2018-12-07T23:30:08.130Z,10.45
2018-12-07T23:32:39.730Z,10.37
2018-12-07T23:35:10.505Z,10.41
2018-12-07T23:37:41.170Z,10.36
2018-12-07T23:40:11.889Z,10.24
2018-12-07T23:42:42.582Z,10.24
2018-12-07T23:45:13.439Z,10.19
2018-12-07T23:47:44.210Z,10.15
2018-12-07T23:50:14.843Z,10.05
2018-12-07T23:52:45.531Z,10.11
2018-12-07T23:55:16.169Z,10.04
2018-12-07T23:57:46.847Z,9.95
